Green Bay Weather Cam - Haven Way - Nearby METAR Reports  

Nearby METAR Reports

 

KGRB - Ashwaubenon, Wisconsin, USA
Distance from station: WNW 5mi, 9km
Updated: 05/27/2024 1:53pm
Overcast
Overcast
 Wind from NNW
Wind: NNW 9 mph , 15 km/h
Temperature: 68°F , 20°C
Dew Point: 54°F , 12°C
Humidity: 60%
Barometer: 29.67 inHg , 1004.7 hPa
Clouds: Overcast
Visibility: 10 miles , 16 km
Cloud details: Few Clouds 3900 ft
Mostly cloudy 8000 ft
Overcast 10000 ft
2024/05/27 18:53 KGRB 271853Z 34008KT 10SM FEW039 BKN080 OVC100 20/12 A2967 RMK AO2 SLP047 T02000122
KOCQ - Oconto, Wisconsin, USA
Distance from station: N 27mi, 43km
Updated: 05/27/2024 1:55pm
Overcast
Overcast
 Wind from NNE
Wind: NNE 10 mph , 17 km/h, Gust: 18 mph , 30 km/h
Temperature: 68°F , 20°C
Dew Point: 52°F , 11°C
Humidity: 56%
Barometer: 29.68 inHg , 1005.1 hPa
Clouds: Overcast
Visibility: 10 miles , 16 km
Cloud details: Partly cloudy 3800 ft
Partly cloudy 4300 ft
Overcast 7500 ft
2024/05/27 18:55 KOCQ 271855Z AUTO 02009G16KT 10SM SCT038 SCT043 OVC075 20/11 A2968 RMK AO1 T01950113
KATW - Appleton/Outagam, Wisconsin, USA
Distance from station: WSW 29mi, 47km
Updated: 05/27/2024 1:45pm
Mostly cloudy
Mostly cloudy
 Wind from NNW
Wind: NNW 14 mph , 22 km/h, Gust: 20 mph , 31 km/h
Temperature: 72°F , 22°C
Dew Point: 54°F , 12°C
Humidity: 53%
Barometer: 29.70 inHg , 1005.8 hPa
Clouds: Mostly cloudy
Visibility: 10 miles , 16 km
Cloud details: Mostly cloudy 4300 ft
2024/05/27 18:45 KATW 271845Z 33012G17KT 10SM BKN043 22/12 A2970
 
KMTW - Manitowac Muni, Wisconsin, USA
Distance from station: SE 31mi, 49km
Updated: 05/27/2024 2:04pm
Overcast
Overcast
 Wind from N
Wind: N 17 mph , 28 km/h, Gust: 26 mph , 43 km/h
Temperature: 66°F , 19°C
Dew Point: 55°F , 13°C
Humidity: 68%
Barometer: 29.67 inHg , 1004.7 hPa
Clouds: Overcast
Visibility: 10 miles , 16 km
Cloud details: Mostly cloudy 2900 ft
Overcast 3800 ft
2024/05/27 19:04 KMTW 271904Z AUTO 35015G23KT 10SM BKN029 OVC038 19/13 A2967 RMK AO2
KCLI - Clintonville, Wisconsin, USA
Distance from station: WNW 37mi, 59km
Updated: 05/27/2024 1:55pm
Overcast
Overcast
 Wind from N
Wind: N 10 mph , 17 km/h, Gust: 21 mph , 33 km/h
Temperature: 68°F , 20°C
Dew Point: 50°F , 10°C
Humidity: 53%
Barometer: 29.72 inHg , 1006.4 hPa
Clouds: Overcast
Visibility: 10 miles , 16 km
Cloud details: Partly cloudy 5000 ft
Partly cloudy 7000 ft
Overcast 8500 ft
2024/05/27 18:55 KCLI 271855Z AUTO 01009G18KT 10SM SCT050 SCT070 OVC085 20/10 A2972 RMK AO2 T02040101
KSUE - Sturgeon Bay, Wisconsin, USA
Distance from station: NE 39mi, 62km
Updated: 05/27/2024 1:56pm
Overcast
Overcast
 Wind from NNE
Wind: NNE 18 mph , 30 km/h, Gust: 23 mph , 37 km/h
Temperature: 59°F , 15°C
Dew Point: 54°F , 12°C
Humidity: 82%
Barometer: 29.68 inHg , 1005.1 hPa
Clouds: Overcast
Visibility: 10 miles , 16 km
Cloud details: Overcast 1800 ft
2024/05/27 18:56 KSUE 271856Z AUTO 02016G20KT 10SM OVC018 15/12 A2968 RMK AO2 SLP047 T01500122
 
KOSH - Oshkosh, Wisconsin, USA
Distance from station: SW 44mi, 72km
Updated: 05/27/2024 1:53pm
Mostly cloudy
Mostly cloudy
 Wind from N
Wind: N 15 mph , 24 km/h
Temperature: 70°F , 21°C
Dew Point: 52°F , 11°C
Humidity: 53%
Barometer: 29.69 inHg , 1005.4 hPa
Clouds: Mostly cloudy
Visibility: 10 miles , 16 km
Cloud details: Partly cloudy 4900 ft
Mostly cloudy 6000 ft
Mostly cloudy 9000 ft
2024/05/27 18:53 KOSH 271853Z 35013KT 10SM SCT049 BKN060 BKN090 21/11 A2969 RMK AO2 SLP049 T02110111
KMNM - Menominee, Michigan, USA
Distance from station: NNE 48mi, 77km
Updated: 05/27/2024 1:57pm
Overcast
Overcast
 Wind from N
Wind: N 14 mph , 22 km/h
Temperature: 64°F , 18°C
Dew Point: 54°F , 12°C
Humidity: 68%
Barometer: 29.68 inHg , 1005.1 hPa
Clouds: Overcast
Visibility: 10 miles , 16 km
Cloud details: Few Clouds 2900 ft
Mostly cloudy 8500 ft
Overcast 11000 ft
2024/05/27 18:57 KMNM 271857Z AUTO 01012KT 10SM FEW029 BKN085 OVC110 18/12 A2968 RMK AO2 SLP066 T01830122 $
KSBM - Sheboygan, Wisconsin, USA
Distance from station: S 49mi, 79km
Updated: 05/27/2024 1:53pm
Mostly cloudy
Mostly cloudy
 Wind from NNW
Wind: NNW 14 mph , 22 km/h, Gust: 22 mph , 35 km/h
Temperature: 66°F , 19°C
Dew Point: 55°F , 13°C
Humidity: 68%
Barometer: 29.68 inHg , 1005.1 hPa
Clouds: Mostly cloudy
Visibility: 10 miles , 16 km
Cloud details: Few Clouds 3000 ft
Partly cloudy 3600 ft
Mostly cloudy 4400 ft
2024/05/27 18:53 KSBM 271853Z AUTO 33012G19KT 10SM FEW030 SCT036 BKN044 19/13 A2968 RMK AO2 SLP048 T01890128
Weather Underground PWS KWIGREEN184 PWS United States Weather Group
USA Weather Finder Award